Time;durP1;ratioP1;P1;durP2;ratioP2;P2;SDS_P1;SDS_P2;PMS_P1;PMS_P2;Temp;Humidity;BMP_temperature;BMP_pressure;BME280_temperature;BME280_humidity;BME280_pressure;Samples;Min_cycle;Max_cycle;Signal;HPM_P1;HPM_P2
2023/07/28 00:01:26;;;;;;;8.27;6.15;;;;;;;16.58;100.00;100271.19;5021766;28;20078;-82
2023/07/28 00:03:52;;;;;;;6.78;6.07;;;;;;;16.60;100.00;100274.44;5023742;28;20025;-82
2023/07/28 00:06:17;;;;;;;7.05;6.35;;;;;;;16.51;100.00;100272.16;5012824;28;20084;-82
2023/07/28 00:08:42;;;;;;;6.95;6.03;;;;;;;16.52;100.00;100265.66;5024817;28;20100;-82
2023/07/28 00:11:12;;;;;;;7.22;5.97;;;;;;;16.50;100.00;100267.81;5025702;28;20095;-82
2023/07/28 00:13:38;;;;;;;7.65;6.22;;;;;;;16.50;100.00;100272.44;5027064;28;20097;-82
2023/07/28 00:16:04;;;;;;;7.75;6.13;;;;;;;16.55;100.00;100274.41;5014465;28;20345;-82
2023/07/28 00:18:29;;;;;;;6.57;5.97;;;;;;;16.70;100.00;100274.59;5020315;28;20496;-83
2023/07/28 00:20:54;;;;;;;6.40;5.80;;;;;;;16.72;100.00;100277.88;5035056;28;20036;-82
2023/07/28 00:23:20;;;;;;;6.93;6.25;;;;;;;16.67;100.00;100272.38;5026991;28;20381;-83
2023/07/28 00:25:45;;;;;;;7.03;6.35;;;;;;;16.63;100.00;100277.50;5029816;28;20131;-81
2023/07/28 00:28:11;;;;;;;8.10;6.50;;;;;;;16.60;100.00;100277.16;5020882;28;20131;-81
2023/07/28 00:30:36;;;;;;;7.18;6.47;;;;;;;16.55;100.00;100279.81;5012841;28;20391;-81
2023/07/28 00:33:01;;;;;;;9.10;6.65;;;;;;;16.59;100.00;100275.53;5023287;28;20025;-81
2023/07/28 00:35:30;;;;;;;8.40;6.75;;;;;;;16.58;100.00;100274.72;5021776;28;20022;-81
2023/07/28 00:37:55;;;;;;;7.50;6.70;;;;;;;16.58;100.00;100273.91;5023417;28;20017;-82
2023/07/28 00:40:21;;;;;;;7.50;6.63;;;;;;;16.62;100.00;100280.44;5027872;28;20040;-82
2023/07/28 00:42:47;;;;;;;7.72;6.88;;;;;;;16.56;100.00;100282.28;5029609;28;20091;-81
2023/07/28 00:45:12;;;;;;;7.22;6.53;;;;;;;16.58;100.00;100273.91;5030104;28;20037;-82
2023/07/28 00:47:38;;;;;;;7.13;6.47;;;;;;;16.66;100.00;100276.16;5028591;28;20030;-82
2023/07/28 00:50:03;;;;;;;8.25;7.00;;;;;;;16.75;100.00;100279.25;5007951;28;20091;-82
2023/07/28 00:52:29;;;;;;;7.50;6.80;;;;;;;16.79;100.00;100283.94;5009211;28;20483;-82
2023/07/28 00:54:57;;;;;;;8.20;7.00;;;;;;;16.73;100.00;100281.41;5028721;28;20021;-82
2023/07/28 00:57:22;;;;;;;8.15;7.00;;;;;;;16.71;100.00;100278.94;5003195;28;20509;-82
2023/07/28 00:59:48;;;;;;;7.55;6.85;;;;;;;16.76;100.00;100287.19;5028760;28;20057;-83
2023/07/28 01:02:13;;;;;;;8.00;7.20;;;;;;;16.69;100.00;100286.53;5020136;28;20037;-82
2023/07/28 01:04:39;;;;;;;8.93;7.28;;;;;;;16.63;100.00;100287.53;5008061;28;20079;-82
2023/07/28 01:07:13;;;;;;;8.13;7.30;;;;;;;16.68;100.00;100285.69;5001719;28;20071;-82
2023/07/28 01:10:35;;;;;;;7.63;6.93;;;;;;;16.70;100.00;100277.31;4997817;28;20040;-82
2023/07/28 01:13:01;;;;;;;9.02;7.20;;;;;;;16.72;100.00;100280.59;4950912;28;20066;-82
2023/07/28 01:15:26;;;;;;;8.27;6.88;;;;;;;16.81;100.00;100279.06;4951035;28;20019;-82
2023/07/28 01:17:52;;;;;;;8.07;7.18;;;;;;;16.75;100.00;100284.69;4989544;28;20398;-82
2023/07/28 01:20:17;;;;;;;8.00;7.20;;;;;;;16.71;100.00;100276.25;5006140;28;20274;-82
2023/07/28 01:22:45;;;;;;;8.18;7.38;;;;;;;16.85;100.00;100284.00;5031602;28;20025;-82
2023/07/28 01:25:19;;;;;;;8.18;7.20;;;;;;;16.80;100.00;100282.06;5023908;28;20033;-82
2023/07/28 01:27:45;;;;;;;8.30;7.38;;;;;;;16.80;100.00;100269.28;5022753;28;20140;-81
2023/07/28 01:30:10;;;;;;;8.32;7.43;;;;;;;16.82;100.00;100272.56;5025122;28;20087;-82
2023/07/28 01:32:36;;;;;;;8.45;7.53;;;;;;;16.69;100.00;100275.66;4996100;28;20547;-81
2023/07/28 01:35:03;;;;;;;8.07;6.95;;;;;;;16.76;100.00;100270.88;5023183;28;20096;-81
2023/07/28 01:37:28;;;;;;;7.65;6.68;;;;;;;16.78;100.00;100279.56;5025471;28;20021;-81
2023/07/28 01:39:54;;;;;;;9.10;7.35;;;;;;;16.80;100.00;100271.19;5032663;28;20132;-82
2023/07/28 01:42:20;;;;;;;9.63;7.13;;;;;;;16.77;100.00;100260.81;5023481;28;20122;-82
2023/07/28 01:44:45;;;;;;;8.23;7.30;;;;;;;16.70;100.00;100271.88;5032372;28;20025;-82
2023/07/28 01:47:10;;;;;;;8.55;7.53;;;;;;;16.68;100.00;100266.66;5018532;28;20026;-81
2023/07/28 01:49:36;;;;;;;8.10;7.30;;;;;;;16.72;100.00;100255.31;5031067;28;20022;-82
2023/07/28 01:52:01;;;;;;;7.95;7.15;;;;;;;16.68;100.00;100257.72;5026012;28;20029;-82
2023/07/28 01:54:27;;;;;;;8.70;7.20;;;;;;;16.57;100.00;100262.19;5031780;28;20056;-82
2023/07/28 01:56:52;;;;;;;8.80;7.55;;;;;;;16.58;100.00;100273.91;5032416;28;20029;-81
2023/07/28 01:59:18;;;;;;;11.30;8.05;;;;;;;16.44;100.00;100271.53;5025160;28;20472;-81
2023/07/28 02:01:44;;;;;;;9.35;7.72;;;;;;;16.56;100.00;100273.31;5024757;28;20025;-81
2023/07/28 02:04:09;;;;;;;10.05;8.15;;;;;;;16.56;100.00;100268.69;5018901;28;20462;-81
2023/07/28 02:06:34;;;;;;;10.25;8.52;;;;;;;16.55;100.00;100271.69;5024974;28;20041;-83
2023/07/28 02:09:00;;;;;;;10.75;8.35;;;;;;;16.61;100.00;100276.09;5020802;28;20045;-81
2023/07/28 02:11:25;;;;;;;10.50;8.30;;;;;;;16.58;100.00;100271.19;5017135;28;20049;-81
2023/07/28 02:13:51;;;;;;;9.77;8.10;;;;;;;16.52;100.00;100281.13;5022544;28;20033;-81
2023/07/28 02:16:16;;;;;;;9.68;8.10;;;;;;;16.61;100.00;100278.81;5029775;28;20418;-83
2023/07/28 02:18:42;;;;;;;11.02;8.70;;;;;;;16.64;100.00;100278.31;5031972;28;20066;-83
2023/07/28 02:21:10;;;;;;;10.18;8.27;;;;;;;16.54;100.00;100284.44;5035094;28;20021;-87
2023/07/28 02:23:35;;;;;;;11.98;8.80;;;;;;;16.52;100.00;100281.13;5029372;28;20140;-83
2023/07/28 02:26:01;;;;;;;11.60;8.88;;;;;;;16.57;100.00;100286.66;5030411;28;20451;-84
2023/07/28 02:28:27;;;;;;;12.48;9.13;;;;;;;16.51;100.00;100280.31;5026489;28;20573;-83
2023/07/28 02:30:52;;;;;;;11.93;9.45;;;;;;;16.53;100.00;100288.22;5029172;28;20052;-82
2023/07/28 02:33:17;;;;;;;10.95;9.07;;;;;;;16.53;100.00;100288.22;5029900;28;20026;-83
2023/07/28 02:35:43;;;;;;;13.07;8.85;;;;;;;16.55;100.00;100291.50;5048678;28;20032;-82
2023/07/28 02:38:08;;;;;;;12.18;9.25;;;;;;;16.48;100.00;100293.59;5042759;28;20029;-83
2023/07/28 02:40:34;;;;;;;11.73;9.15;;;;;;;16.55;100.00;100288.78;5041585;28;20056;-82
2023/07/28 02:42:59;;;;;;;11.50;8.95;;;;;;;16.56;100.00;100292.34;5040563;28;20017;-83
2023/07/28 02:45:25;;;;;;;11.05;8.90;;;;;;;16.52;100.00;100286.56;5026611;28;20461;-83
2023/07/28 02:47:50;;;;;;;13.35;9.40;;;;;;;16.60;100.00;100297.00;5027679;28;20520;-83
2023/07/28 02:50:16;;;;;;;13.55;9.35;;;;;;;16.59;100.00;100289.13;5030519;28;20033;-83
2023/07/28 02:52:41;;;;;;;12.57;9.77;;;;;;;16.54;100.00;100294.47;5021321;28;20033;-83
2023/07/28 02:55:07;;;;;;;13.85;10.07;;;;;;;16.48;100.00;100299.84;5022843;28;20503;-83
2023/07/28 02:57:32;;;;;;;11.90;9.30;;;;;;;16.56;100.00;100295.06;5027848;28;20029;-83
2023/07/28 02:59:58;;;;;;;14.43;9.60;;;;;;;16.66;100.00;100300.63;5016501;28;20029;-83
2023/07/28 03:02:23;;;;;;;13.02;9.50;;;;;;;16.57;100.00;100299.41;5024554;28;20031;-82
2023/07/28 03:04:49;;;;;;;15.10;9.73;;;;;;;16.53;100.00;100304.50;5024143;28;20028;-83
2023/07/28 03:07:15;;;;;;;16.67;10.40;;;;;;;16.48;100.00;100310.72;5025920;28;20509;-83
2023/07/28 03:09:40;;;;;;;17.25;10.68;;;;;;;16.44;100.00;100303.31;5025927;28;20563;-83
2023/07/28 03:12:06;;;;;;;13.63;9.85;;;;;;;16.52;100.00;100301.00;5026936;28;20084;-85
2023/07/28 03:14:32;;;;;;;12.88;9.93;;;;;;;16.58;100.00;100306.50;5032335;28;20033;-84
2023/07/28 03:16:57;;;;;;;13.23;9.48;;;;;;;16.60;100.00;100304.34;5031111;28;20059;-83
2023/07/28 03:19:22;;;;;;;14.77;9.80;;;;;;;16.62;100.00;100302.19;5030819;28;20496;-83
2023/07/28 03:21:48;;;;;;;14.63;10.05;;;;;;;16.51;100.00;100307.50;5024083;28;20079;-83
2023/07/28 03:24:13;;;;;;;16.58;10.73;;;;;;;16.45;100.00;100313.91;5022969;28;20052;-83
2023/07/28 03:26:39;;;;;;;16.98;10.60;;;;;;;16.41;100.00;100311.97;5022677;28;20030;-83
2023/07/28 03:29:04;;;;;;;15.32;9.93;;;;;;;16.41;100.00;100311.97;5021689;28;20485;-83
2023/07/28 03:31:29;;;;;;;17.45;10.43;;;;;;;16.50;100.00;100322.16;5016825;28;20482;-83
2023/07/28 03:33:55;;;;;;;15.52;9.88;;;;;;;16.59;100.00;100325.25;5016994;28;20363;-83
2023/07/28 03:36:20;;;;;;;16.17;9.95;;;;;;;16.50;100.00;100315.91;5032548;28;20036;-83
2023/07/28 03:38:46;;;;;;;16.02;10.13;;;;;;;16.55;100.00;100315.97;5025870;28;20456;-83
2023/07/28 03:41:12;;;;;;;15.57;9.88;;;;;;;16.48;100.00;100323.47;5019689;28;20528;-84
2023/07/28 03:43:37;;;;;;;15.43;10.27;;;;;;;16.61;100.00;100322.28;5029165;28;20029;-83
2023/07/28 03:46:03;;;;;;;17.48;10.13;;;;;;;16.59;100.00;100330.69;5004653;28;20026;-83
2023/07/28 03:48:28;;;;;;;16.80;10.55;;;;;;;16.53;100.00;100326.25;5022924;28;20029;-83
2023/07/28 03:50:54;;;;;;;17.05;10.20;;;;;;;16.52;100.00;100330.88;5028542;28;20022;-84
2023/07/28 03:53:19;;;;;;;15.90;10.20;;;;;;;16.56;100.00;100333.09;5026216;28;20022;-83
2023/07/28 03:55:45;;;;;;;17.83;10.77;;;;;;;16.47;100.00;100325.38;5020577;28;20509;-83
2023/07/28 03:58:10;;;;;;;17.02;9.68;;;;;;;16.59;100.00;100330.69;5029708;28;20033;-83
2023/07/28 04:00:35;;;;;;;15.52;9.57;;;;;;;16.57;100.00;100327.41;5024685;28;20032;-83
2023/07/28 04:03:01;;;;;;;16.17;9.93;;;;;;;16.60;100.00;100328.78;5022417;28;20029;-83
2023/07/28 04:05:26;;;;;;;17.05;9.73;;;;;;;16.60;100.00;100326.06;5032391;28;20087;-83
2023/07/28 04:07:52;;;;;;;17.67;10.27;;;;;;;16.57;100.00;100326.59;5020637;28;20482;-83
2023/07/28 04:10:17;;;;;;;17.27;10.68;;;;;;;16.57;100.00;100329.31;5019359;28;20026;-83
2023/07/28 04:12:42;;;;;;;17.35;10.75;;;;;;;16.59;100.00;100332.59;5020987;28;20044;-83
2023/07/28 04:15:08;;;;;;;18.60;11.13;;;;;;;16.58;100.00;100334.47;5028778;28;20125;-83
2023/07/28 04:17:33;;;;;;;20.40;11.75;;;;;;;16.51;100.00;100329.22;5025676;28;20038;-83
2023/07/28 04:19:59;;;;;;;20.13;11.43;;;;;;;16.50;100.00;100335.72;5018160;28;20021;-83
2023/07/28 04:22:24;;;;;;;21.75;11.88;;;;;;;16.54;100.00;100338.75;5024881;28;20401;-83
2023/07/28 04:24:50;;;;;;;23.63;12.15;;;;;;;16.51;100.00;100341.97;5021521;28;20089;-83
2023/07/28 04:27:15;;;;;;;21.35;11.75;;;;;;;16.59;100.00;100346.19;5022608;28;20068;-83
2023/07/28 04:29:41;;;;;;;22.50;12.75;;;;;;;16.51;100.00;100345.53;5027563;28;20385;-83
2023/07/28 04:32:06;;;;;;;24.30;12.75;;;;;;;16.43;100.00;100347.84;5015171;28;20034;-83
2023/07/28 04:34:35;;;;;;;21.60;12.13;;;;;;;16.54;100.00;100340.69;5024789;28;20049;-83
2023/07/28 04:37:01;;;;;;;20.65;11.77;;;;;;;16.64;100.00;100349.81;5030895;28;20029;-83
2023/07/28 04:39:27;;;;;;;19.85;11.75;;;;;;;16.70;100.00;100356.13;5029638;28;20756;-83
2023/07/28 04:41:52;;;;;;;17.55;11.57;;;;;;;16.78;100.00;100354.88;5024068;28;20022;-83
2023/07/28 04:44:18;;;;;;;18.65;11.20;;;;;;;16.76;100.00;100357.84;5026857;28;20044;-83
2023/07/28 04:46:43;;;;;;;21.60;11.73;;;;;;;16.76;100.00;100357.84;5027349;28;20033;-83
2023/07/28 04:49:09;;;;;;;18.38;11.13;;;;;;;16.76;100.00;100363.28;5026498;28;20033;-83
2023/07/28 04:51:34;;;;;;;20.15;11.15;;;;;;;16.74;100.00;100360.00;5028061;28;20021;-83
2023/07/28 04:53:59;;;;;;;17.73;10.63;;;;;;;16.85;100.00;100363.69;5021869;28;20450;-83
2023/07/28 04:56:25;;;;;;;18.77;11.13;;;;;;;16.92;100.00;100355.34;5019620;28;20034;-83
2023/07/28 04:58:50;;;;;;;16.77;10.30;;;;;;;16.81;100.00;100366.06;5027258;28;20076;-83
2023/07/28 05:01:16;;;;;;;19.17;11.43;;;;;;;16.75;100.00;100361.66;5033544;28;20071;-83
2023/07/28 05:03:41;;;;;;;17.38;10.10;;;;;;;16.87;100.00;100366.13;5029803;28;20508;-84
2023/07/28 05:06:06;;;;;;;16.52;10.07;;;;;;;16.92;100.00;100371.66;5025701;28;20119;-83
2023/07/28 05:08:32;;;;;;;16.30;10.02;;;;;;;16.91;100.00;100378.97;5023617;28;20047;-82
2023/07/28 05:10:57;;;;;;;16.85;10.43;;;;;;;16.89;100.00;100369.44;5026514;28;20040;-82
2023/07/28 05:13:23;;;;;;;15.65;10.45;;;;;;;16.88;100.00;100371.31;5021564;28;20041;-85
2023/07/28 05:15:48;;;;;;;16.30;10.38;;;;;;;16.89;100.00;100366.72;5021721;28;20254;-86
2023/07/28 05:18:13;;;;;;;16.45;10.63;;;;;;;17.02;100.00;100360.94;5023231;28;20029;-86
2023/07/28 05:20:39;;;;;;;15.35;9.82;;;;;;;17.02;100.00;100366.38;5017544;28;20034;-81
2023/07/28 05:23:04;;;;;;;14.40;8.88;;;;;;;16.99;100.00;100368.78;5016808;28;20552;-77
2023/07/28 05:25:30;;;;;;;15.68;10.05;;;;;;;16.94;100.00;100369.50;5030179;28;20061;-82
2023/07/28 05:27:58;;;;;;;15.98;9.60;;;;;;;17.07;100.00;100366.44;5044867;28;20051;-83
2023/07/28 05:30:23;;;;;;;15.65;9.93;;;;;;;17.12;100.00;100366.50;5028182;28;20033;-82
2023/07/28 05:32:51;;;;;;;15.73;10.25;;;;;;;17.18;100.00;100364.69;5016032;28;20033;-82
2023/07/28 05:35:17;;;;;;;14.52;9.65;;;;;;;17.13;100.00;100368.13;4987417;28;20492;-84
2023/07/28 05:37:42;;;;;;;15.68;10.02;;;;;;;17.15;100.00;100365.19;5022142;28;20025;-84
2023/07/28 05:40:08;;;;;;;15.32;9.75;;;;;;;17.09;100.00;100366.19;5026266;28;20497;-82
2023/07/28 05:42:34;;;;;;;15.98;10.52;;;;;;;17.19;100.00;100358.16;5030483;28;20065;-82
2023/07/28 05:44:59;;;;;;;18.42;10.10;;;;;;;17.09;100.00;100358.84;5024778;28;20100;-82
2023/07/28 05:47:25;;;;;;;14.52;9.32;;;;;;;17.21;100.00;100372.31;5038872;28;20025;-82
2023/07/28 05:49:53;;;;;;;14.68;9.57;;;;;;;17.20;100.00;100378.00;5044697;28;20099;-82
2023/07/28 05:52:19;;;;;;;15.25;9.38;;;;;;;17.28;100.00;100378.38;5046035;28;20129;-82
2023/07/28 05:54:44;;;;;;;15.48;9.52;;;;;;;17.28;100.00;100380.31;5027545;28;20022;-83
2023/07/28 05:57:09;;;;;;;15.60;9.43;;;;;;;17.22;100.00;100373.16;5026477;28;20030;-82
2023/07/28 05:59:35;;;;;;;17.92;9.95;;;;;;;17.13;100.00;100384.44;5026931;28;20033;-83
2023/07/28 06:02:01;;;;;;;16.63;10.15;;;;;;;17.10;100.00;100384.97;5024573;28;20092;-83
2023/07/28 06:04:26;;;;;;;16.20;9.57;;;;;;;17.11;100.00;100383.91;5033765;28;20021;-82
2023/07/28 06:06:51;;;;;;;16.55;9.82;;;;;;;17.13;100.00;100398.06;5031779;28;20121;-82
2023/07/28 06:09:17;;;;;;;16.65;10.15;;;;;;;17.19;100.00;100406.28;5021548;28;20037;-83
2023/07/28 06:11:42;;;;;;;18.65;10.10;;;;;;;17.20;100.00;100402.50;5025462;28;20022;-83
2023/07/28 06:14:08;;;;;;;17.98;10.32;;;;;;;17.19;100.00;100403.56;5023912;28;20037;-82
2023/07/28 06:16:33;;;;;;;19.23;10.77;;;;;;;17.19;100.00;100409.00;5032310;28;20063;-83
2023/07/28 06:18:59;;;;;;;16.67;9.90;;;;;;;17.30;100.00;100404.53;5023500;28;20052;-83
2023/07/28 06:21:24;;;;;;;17.55;10.55;;;;;;;17.31;100.00;100406.97;5016857;28;20026;-82
2023/07/28 06:23:50;;;;;;;19.52;11.02;;;;;;;17.26;100.00;100409.66;5020135;28;20040;-82
2023/07/28 06:26:15;;;;;;;20.25;11.57;;;;;;;17.27;100.00;100411.31;5029622;28;20056;-82
2023/07/28 06:28:40;;;;;;;22.83;12.23;;;;;;;17.16;100.00;100410.34;5022552;28;20413;-83
2023/07/28 06:31:06;;;;;;;21.00;11.20;;;;;;;17.28;100.00;100415.66;5027855;28;20079;-81
2023/07/28 06:33:31;;;;;;;23.02;12.13;;;;;;;17.23;100.00;100415.59;5021576;28;20462;-80
2023/07/28 06:35:57;;;;;;;24.58;12.48;;;;;;;17.30;100.00;100424.38;5015010;28;20034;-82
2023/07/28 06:38:22;;;;;;;19.85;11.75;;;;;;;17.35;100.00;100424.44;5019713;28;20017;-83
2023/07/28 06:40:48;;;;;;;23.58;11.70;;;;;;;17.40;100.00;100415.50;5017585;28;20025;-83
2023/07/28 06:43:15;;;;;;;19.85;11.10;;;;;;;17.36;100.00;100426.09;5029792;28;20038;-81
2023/07/28 06:45:41;;;;;;;23.13;12.55;;;;;;;17.30;100.00;100426.28;5032142;28;20036;-82
2023/07/28 06:48:06;;;;;;;17.50;10.90;;;;;;;17.21;100.00;100420.47;5024006;28;20026;-82
2023/07/28 06:50:32;;;;;;;21.27;12.20;;;;;;;17.26;100.00;100429.50;5039863;28;20025;-82
2023/07/28 06:52:58;;;;;;;23.60;12.73;;;;;;;17.26;100.00;100437.66;5030048;28;20044;-82
2023/07/28 06:55:23;;;;;;;19.70;11.00;;;;;;;17.31;100.00;100430.66;5024135;28;20028;-82
2023/07/28 06:57:49;;;;;;;21.80;11.35;;;;;;;17.54;100.00;100435.84;5031735;28;20047;-82
2023/07/28 07:00:15;;;;;;;20.75;11.68;;;;;;;17.67;100.00;100445.50;5021564;28;20104;-82
2023/07/28 07:02:40;;;;;;;17.42;11.05;;;;;;;17.77;100.00;100446.72;5020144;28;20493;-82
2023/07/28 07:05:06;;;;;;;16.75;11.52;;;;;;;17.77;100.00;100452.16;5027241;28;20111;-80
2023/07/28 07:07:32;;;;;;;17.70;11.30;;;;;;;17.65;100.00;100449.56;5022067;28;20128;-87
2023/07/28 07:09:57;;;;;;;16.13;11.02;;;;;;;17.90;100.00;100457.19;5027373;28;20107;-81
2023/07/28 07:12:22;;;;;;;16.42;11.45;;;;;;;17.83;100.00;100462.00;5022736;28;20438;-80
2023/07/28 07:14:48;;;;;;;17.42;10.38;;;;;;;17.99;100.00;100469.31;5027728;28;20034;-82
2023/07/28 07:17:13;;;;;;;17.95;11.02;;;;;;;17.86;100.00;100469.69;5028988;28;20026;-81
2023/07/28 07:19:39;;;;;;;17.10;10.45;;;;;;;17.94;100.00;100471.97;5012231;28;20026;-81
2023/07/28 07:22:05;;;;;;;15.52;10.52;;;;;;;17.87;100.00;100472.16;5030639;28;20124;-81
2023/07/28 07:24:30;;;;;;;15.82;10.43;;;;;;;17.97;100.00;100474.16;5027722;28;20037;-80
2023/07/28 07:26:56;;;;;;;15.50;11.23;;;;;;;17.86;100.00;100478.69;5026386;28;20030;-81
2023/07/28 07:29:21;;;;;;;16.27;11.00;;;;;;;17.87;100.00;100480.31;5029894;28;20478;-80
2023/07/28 07:31:46;;;;;;;14.77;10.88;;;;;;;18.00;100.00;100481.84;5020758;28;20030;-80
2023/07/28 07:34:12;;;;;;;16.98;10.43;;;;;;;18.08;100.00;100474.28;5019498;28;20025;-78
2023/07/28 07:36:40;;;;;;;16.77;10.90;;;;;;;18.11;100.00;100485.50;5021881;28;20385;-79
2023/07/28 07:39:05;;;;;;;17.92;12.13;;;;;;;17.92;100.00;100493.16;5014225;28;20089;-79
2023/07/28 07:41:31;;;;;;;20.58;11.82;;;;;;;17.73;100.00;100496.22;5026740;28;20673;-79
2023/07/28 07:43:56;;;;;;;17.88;11.52;;;;;;;17.92;100.00;100498.63;5016329;28;20037;-79
2023/07/28 07:46:22;;;;;;;15.82;10.73;;;;;;;18.07;100.00;100502.63;5027833;28;20026;-79
2023/07/28 07:48:47;;;;;;;16.92;10.88;;;;;;;18.01;100.00;100502.56;5023090;28;20075;-78
2023/07/28 07:51:13;;;;;;;15.00;10.60;;;;;;;18.16;100.00;100501.09;5021584;28;20022;-78
2023/07/28 07:53:38;;;;;;;14.52;10.32;;;;;;;18.23;100.00;100493.53;5024452;28;20414;-79
2023/07/28 07:56:04;;;;;;;15.27;10.55;;;;;;;18.41;100.00;100505.13;5021297;28;20029;-78
2023/07/28 07:58:29;;;;;;;13.32;10.07;;;;;;;18.45;100.00;100500.81;5018931;28;20058;-78
2023/07/28 08:00:55;;;;;;;13.90;10.27;;;;;;;18.49;100.00;100502.75;5010590;28;20401;-78
2023/07/28 08:03:21;;;;;;;15.60;10.55;;;;;;;18.84;98.75;100508.78;5004237;28;20030;-79
2023/07/28 08:05:46;;;;;;;13.00;10.73;;;;;;;18.66;97.74;100501.81;5025009;28;20057;-79
2023/07/28 08:08:11;;;;;;;15.05;10.32;;;;;;;18.83;97.10;100507.16;5018542;28;20548;-79
2023/07/28 08:10:38;;;;;;;15.23;10.00;;;;;;;18.64;98.00;100502.09;5026141;28;20027;-78
2023/07/28 08:13:04;;;;;;;12.88;9.77;;;;;;;18.83;97.53;100507.16;5029517;28;20030;-82
2023/07/28 08:15:29;;;;;;;14.10;10.18;;;;;;;18.89;96.73;100508.81;5020759;28;20348;-81
2023/07/28 08:17:55;;;;;;;13.00;9.93;;;;;;;18.86;98.58;100514.81;5026693;28;20028;-78
2023/07/28 08:20:20;;;;;;;12.63;9.25;;;;;;;18.93;98.50;100509.13;5024227;28;20030;-79
2023/07/28 08:22:45;;;;;;;14.35;9.82;;;;;;;19.01;96.72;100521.50;5026823;28;20427;-77
2023/07/28 08:25:11;;;;;;;14.57;10.93;;;;;;;18.99;95.71;100515.47;5029108;28;20033;-77
2023/07/28 08:27:36;;;;;;;17.05;10.55;;;;;;;18.88;96.60;100518.09;5020813;28;20025;-77
2023/07/28 08:30:03;;;;;;;14.07;10.70;;;;;;;18.76;96.74;100522.88;5028786;28;20029;-77
2023/07/28 08:32:28;;;;;;;16.92;12.02;;;;;;;18.64;96.86;100526.63;5029863;28;20185;-77
2023/07/28 08:34:54;;;;;;;15.60;10.85;;;;;;;18.70;97.72;100518.50;5019318;28;20033;-77
2023/07/28 08:37:19;;;;;;;14.65;10.05;;;;;;;18.80;97.24;100526.75;5023187;28;20061;-77
2023/07/28 08:39:44;;;;;;;14.30;10.20;;;;;;;18.90;97.08;100521.38;5020027;28;20072;-77
2023/07/28 08:42:10;;;;;;;14.90;10.95;;;;;;;18.79;97.05;100538.75;5024911;28;20025;-78
2023/07/28 08:44:35;;;;;;;15.40;11.05;;;;;;;18.75;97.61;100537.59;5027455;28;20022;-80
2023/07/28 08:47:02;;;;;;;15.32;10.18;;;;;;;18.90;97.25;100535.00;5020613;28;20043;-81
2023/07/28 08:49:27;;;;;;;14.48;10.45;;;;;;;19.07;97.02;100528.59;5026895;28;20035;-80
2023/07/28 08:51:57;;;;;;;14.07;9.80;;;;;;;19.28;95.28;100528.75;5022823;28;20416;-75
2023/07/28 08:54:23;;;;;;;17.02;10.48;;;;;;;19.34;93.20;100535.88;5028116;28;20025;-75
2023/07/28 08:56:48;;;;;;;14.43;10.82;;;;;;;19.17;95.61;100525.97;5029147;28;20044;-77
2023/07/28 08:59:21;;;;;;;13.75;10.02;;;;;;;19.29;94.71;100528.50;5031676;28;20032;-79
2023/07/28 09:01:46;;;;;;;12.93;9.82;;;;;;;19.39;93.87;100533.19;5048729;28;20017;-80
2023/07/28 09:04:12;;;;;;;11.23;8.95;;;;;;;19.70;91.39;100534.16;5032149;28;20034;-83
2023/07/28 09:06:37;;;;;;;12.52;9.80;;;;;;;19.44;92.88;100532.41;5022575;28;20021;-82
2023/07/28 09:09:06;;;;;;;11.48;9.50;;;;;;;19.39;93.18;100530.47;5023554;28;20049;-82
2023/07/28 09:11:32;;;;;;;11.88;8.80;;;;;;;19.75;90.44;100538.00;5004421;28;20034;-82
2023/07/28 09:13:59;;;;;;;11.15;9.32;;;;;;;19.82;89.78;100533.13;5021653;28;20090;-81
2023/07/28 09:16:25;;;;;;;12.38;9.50;;;;;;;19.69;92.16;100542.63;4995303;28;20491;-84
2023/07/28 09:18:51;;;;;;;10.57;8.90;;;;;;;20.13;88.89;100538.72;5020119;28;20033;-84
2023/07/28 09:21:23;;;;;;;11.25;9.25;;;;;;;19.89;89.38;100543.84;5025510;28;20130;-83
2023/07/28 09:23:49;;;;;;;11.27;9.18;;;;;;;20.33;88.42;100535.22;5042846;28;20025;-82
2023/07/28 09:26:15;;;;;;;10.68;8.35;;;;;;;20.95;84.46;100534.47;4994851;28;20026;-83
2023/07/28 09:28:41;;;;;;;13.68;9.32;;;;;;;20.97;82.92;100543.22;5022406;28;20091;-82
2023/07/28 09:31:07;;;;;;;11.77;9.35;;;;;;;20.85;83.20;100538.84;5017003;28;20025;-83
2023/07/28 09:33:34;;;;;;;12.27;9.70;;;;;;;20.56;85.12;100547.53;5033710;28;20758;-83
2023/07/28 09:36:12;;;;;;;11.65;10.02;;;;;;;20.75;84.13;100545.16;5031763;28;20044;-83
2023/07/28 09:38:40;;;;;;;13.73;10.32;;;;;;;20.66;84.48;100541.25;5025529;28;20032;-83
2023/07/28 09:41:08;;;;;;;12.02;10.35;;;;;;;20.68;85.47;100544.56;5023686;28;20026;-83
2023/07/28 09:43:34;;;;;;;13.95;10.30;;;;;;;20.74;83.51;100545.38;5023476;28;20049;-83
2023/07/28 09:46:00;;;;;;;14.27;10.52;;;;;;;20.60;83.39;100548.66;4997099;28;20030;-83
2023/07/28 09:48:28;;;;;;;13.68;10.95;;;;;;;20.95;82.92;100540.78;5004202;28;20453;-83
2023/07/28 09:50:53;;;;;;;13.02;11.18;;;;;;;20.82;83.52;100546.78;4996439;28;20030;-83
2023/07/28 09:53:20;;;;;;;13.63;10.20;;;;;;;21.09;82.93;100551.97;5014091;28;20068;-83
2023/07/28 09:55:46;;;;;;;12.02;10.55;;;;;;;21.14;81.55;100553.88;5024470;28;20034;-84
2023/07/28 09:58:12;;;;;;;14.75;12.23;;;;;;;21.02;81.39;100554.97;4996214;28;20029;-83
2023/07/28 10:00:38;;;;;;;15.27;12.23;;;;;;;20.99;80.95;100547.34;5019511;28;20435;-85
2023/07/28 10:03:03;;;;;;;18.13;13.05;;;;;;;20.82;82.80;100561.28;5022819;28;20021;-82
2023/07/28 10:05:29;;;;;;;18.33;13.18;;;;;;;20.54;83.74;100570.78;5001854;28;20025;-83
2023/07/28 10:07:55;;;;;;;17.60;13.32;;;;;;;20.27;85.70;100561.72;4997554;28;20244;-83
2023/07/28 10:10:20;;;;;;;21.30;13.55;;;;;;;20.28;86.56;100562.56;4990585;28;20029;-83
2023/07/28 10:12:48;;;;;;;17.20;13.15;;;;;;;20.38;85.43;100562.56;5013916;28;20432;-83
2023/07/28 10:15:15;;;;;;;16.77;12.68;;;;;;;20.62;85.12;100561.22;5025517;28;20048;-83
2023/07/28 10:17:45;;;;;;;15.68;12.85;;;;;;;21.07;82.48;100564.28;5027758;28;20046;-83
2023/07/28 10:20:29;;;;;;;15.32;12.23;;;;;;;21.60;81.19;100559.28;4995320;28;20030;-83
2023/07/28 10:23:21;;;;;;;19.00;12.93;;;;;;;21.73;81.90;100562.53;5022543;28;20061;-83
2023/07/28 10:25:47;;;;;;;16.95;12.38;;;;;;;22.35;75.80;100562.25;5024363;28;20616;-83
2023/07/28 10:28:25;;;;;;;16.08;12.73;;;;;;;23.39;72.94;100565.00;4992229;28;20253;-85
2023/07/28 10:30:54;;;;;;;14.93;12.05;;;;;;;24.03;70.75;100579.44;5026184;28;20025;-85
2023/07/28 10:33:26;;;;;;;15.32;12.63;;;;;;;23.61;69.66;100562.59;5023900;28;20037;-82
2023/07/28 10:35:52;;;;;;;14.05;11.57;;;;;;;24.29;67.11;100565.34;5024704;28;20046;-82
2023/07/28 10:38:31;;;;;;;14.27;11.82;;;;;;;24.48;66.51;100568.09;5029130;28;20025;-84
2023/07/28 10:41:10;;;;;;;14.25;12.20;;;;;;;24.77;65.11;100567.13;5024116;28;20034;-84
2023/07/28 10:43:36;;;;;;;18.88;13.43;;;;;;;24.71;64.77;100567.53;5012338;28;20056;-84
2023/07/28 10:46:01;;;;;;;17.10;12.73;;;;;;;24.83;64.34;100560.41;5023476;28;20486;-84
2023/07/28 10:48:27;;;;;;;15.40;13.13;;;;;;;24.89;66.83;100563.88;5025352;28;20095;-84
2023/07/28 10:50:52;;;;;;;16.65;13.13;;;;;;;24.32;69.06;100573.00;5030124;28;20029;-85
2023/07/28 10:53:17;;;;;;;15.63;13.60;;;;;;;24.26;68.24;100573.38;5020590;28;20032;-85
2023/07/28 10:55:43;;;;;;;13.65;12.13;;;;;;;24.19;68.09;100562.72;5023310;28;20434;-85
2023/07/28 10:58:08;;;;;;;14.93;10.30;;;;;;;24.89;65.14;100563.88;5009451;28;20493;-84
2023/07/28 11:00:34;;;;;;;12.80;10.90;;;;;;;24.61;64.29;100573.97;5022325;28;20441;-84
2023/07/28 11:02:59;;;;;;;11.45;9.68;;;;;;;24.60;62.04;100558.56;5028117;28;20049;-85
2023/07/28 11:05:31;;;;;;;12.73;10.38;;;;;;;23.61;65.81;100568.09;5020952;28;20025;-84